Time,TemperatureF,DewpointF,PressureIn,WindDirection,WindDirectionDegrees,WindSpeedMPH,WindSpeedGustMPH,Humidity,HourlyPrecipIn,Conditions,Clouds,dailyrainin,SoftwareType,DateUTC
2013-03-06 00:02:00,30.0,-9.5,30.34,WNW,290,5.0,5.0,17,0.00,,---,0.00,VWS V14.01,2013-03-06 07:02:00,
2013-03-06 00:07:00,30.2,-8.2,30.33,West,281,5.0,6.0,18,0.00,,---,0.00,VWS V14.01,2013-03-06 07:07:00,
2013-03-06 00:12:00,30.1,-9.4,30.33,NW,311,5.0,6.0,17,0.00,,---,0.00,VWS V14.01,2013-03-06 07:12:00,
2013-03-06 00:17:00,30.3,-10.5,30.33,NW,311,4.0,5.0,16,0.00,,---,0.00,VWS V14.01,2013-03-06 07:17:00,
2013-03-06 00:22:00,30.7,-11.5,30.32,NW,311,4.0,5.0,15,0.00,,---,0.00,VWS V14.01,2013-03-06 07:22:00,
2013-03-06 00:27:00,31.1,-11.1,30.32,WNW,302,4.0,6.0,15,0.00,,---,0.00,VWS V14.01,2013-03-06 07:27:00,
2013-03-06 00:32:00,31.3,-11.0,30.32,West,272,6.0,7.0,15,0.00,,---,0.00,VWS V14.01,2013-03-06 07:32:00,
2013-03-06 00:37:00,31.2,-11.1,30.32,West,276,4.0,4.0,15,0.00,,---,0.00,VWS V14.01,2013-03-06 07:37:00,
2013-03-06 00:42:00,31.3,-11.0,30.32,West,275,5.0,5.0,15,0.00,,---,0.00,VWS V14.01,2013-03-06 07:42:00,
2013-03-06 00:47:00,31.8,-10.6,30.32,West,280,5.0,6.0,15,0.00,,---,0.00,VWS V14.01,2013-03-06 07:47:00,
2013-03-06 00:52:00,32.2,-10.2,30.32,West,267,5.0,7.0,15,0.00,,---,0.00,VWS V14.01,2013-03-06 07:52:00,
2013-03-06 00:57:00,31.6,-9.4,30.32,West,279,7.0,7.0,16,0.00,,---,0.00,VWS V14.01,2013-03-06 07:57:00,
2013-03-06 01:02:00,31.2,-11.1,30.32,WNW,292,8.0,8.0,15,0.00,,---,0.00,VWS V14.01,2013-03-06 08:02:00,
2013-03-06 01:07:00,31.4,-12.3,30.31,WNW,288,6.0,9.0,14,0.00,,---,0.00,VWS V14.01,2013-03-06 08:07:00,
2013-03-06 01:12:00,31.6,-12.1,30.31,WNW,282,7.0,8.0,14,0.00,,---,0.00,VWS V14.01,2013-03-06 08:12:00,
2013-03-06 01:17:00,31.3,-11.0,30.31,WSW,250,5.0,7.0,15,0.00,,---,0.00,VWS V14.01,2013-03-06 08:17:00,
2013-03-06 01:22:00,30.4,-10.4,30.31,West,281,8.0,9.0,16,0.00,,---,0.00,VWS V14.01,2013-03-06 08:22:00,
2013-03-06 01:27:00,29.4,-8.9,30.31,West,269,5.0,7.0,18,0.00,,---,0.00,VWS V14.01,2013-03-06 08:27:00,
2013-03-06 01:32:00,29.0,-9.2,30.31,WSW,253,7.0,9.0,18,0.00,,---,0.00,VWS V14.01,2013-03-06 08:32:00,
2013-03-06 01:37:00,29.1,-10.3,30.31,WSW,251,8.0,8.0,17,0.00,,---,0.00,VWS V14.01,2013-03-06 08:37:00,
2013-03-06 01:42:00,29.3,-10.1,30.31,WSW,254,7.0,9.0,17,0.00,,---,0.00,VWS V14.01,2013-03-06 08:42:00,
2013-03-06 01:47:00,29.2,-9.0,30.30,West,279,6.0,8.0,18,0.00,,---,0.00,VWS V14.01,2013-03-06 08:47:00,
2013-03-06 01:52:00,29.4,-8.9,30.30,West,266,6.0,9.0,18,0.00,,---,0.00,VWS V14.01,2013-03-06 08:52:00,
2013-03-06 01:57:00,29.6,-9.9,30.30,West,279,7.0,8.0,17,0.00,,---,0.00,VWS V14.01,2013-03-06 08:57:00,
2013-03-06 02:02:00,29.8,-9.7,30.30,West,273,5.0,7.0,17,0.00,,---,0.00,VWS V14.01,2013-03-06 09:02:00,
2013-03-06 02:07:00,30.0,-9.5,30.29,West,272,6.0,8.0,17,0.00,,---,0.00,VWS V14.01,2013-03-06 09:07:00,
2013-03-06 02:12:00,30.2,-9.4,30.28,West,271,7.0,8.0,17,0.00,,---,0.00,VWS V14.01,2013-03-06 09:12:00,
2013-03-06 02:17:00,30.2,-9.4,30.28,West,273,6.0,7.0,17,0.00,,---,0.00,VWS V14.01,2013-03-06 09:17:00,
2013-03-06 02:22:00,30.0,-9.5,30.27,West,263,6.0,9.0,17,0.00,,---,0.00,VWS V14.01,2013-03-06 09:22:00,
2013-03-06 02:27:00,29.8,-9.7,30.27,West,269,6.0,9.0,17,0.00,,---,0.00,VWS V14.01,2013-03-06 09:27:00,
2013-03-06 02:32:00,30.0,-9.5,30.27,West,271,7.0,9.0,17,0.00,,---,0.00,VWS V14.01,2013-03-06 09:32:00,
2013-03-06 02:37:00,30.2,-9.4,30.26,West,269,5.0,9.0,17,0.00,,---,0.00,VWS V14.01,2013-03-06 09:37:00,
2013-03-06 02:42:00,30.1,-9.4,30.26,WSW,242,8.0,9.0,17,0.00,,---,0.00,VWS V14.01,2013-03-06 09:42:00,
2013-03-06 02:47:00,30.1,-9.4,30.26,West,275,4.0,8.0,17,0.00,,---,0.00,VWS V14.01,2013-03-06 09:47:00,
2013-03-06 02:52:00,30.2,-8.2,30.25,West,266,5.0,6.0,18,0.00,,---,0.00,VWS V14.01,2013-03-06 09:52:00,
2013-03-06 02:57:00,30.3,-8.1,30.25,WSW,254,4.0,4.0,18,0.00,,---,0.00,VWS V14.01,2013-03-06 09:57:00,
2013-03-06 03:03:00,30.3,-9.3,30.24,SW,234,5.0,6.0,17,0.00,,---,0.00,VWS V14.01,2013-03-06 10:03:00,
2013-03-06 03:08:00,30.5,-9.1,30.25,SW,227,5.0,5.0,17,0.00,,---,0.00,VWS V14.01,2013-03-06 10:08:00,
2013-03-06 03:13:00,30.6,-7.9,30.24,WSW,256,0.0,4.0,18,0.00,,---,0.00,VWS V14.01,2013-03-06 10:13:00,
2013-03-06 03:18:00,30.6,-9.0,30.24,SSW,213,1.0,5.0,17,0.00,,---,0.00,VWS V14.01,2013-03-06 10:18:00,
2013-03-06 03:23:00,30.5,-7.9,30.24,SSW,213,4.0,4.0,18,0.00,,---,0.00,VWS V14.01,2013-03-06 10:23:00,
2013-03-06 03:28:00,30.4,-8.0,30.24,SSW,207,2.0,2.0,18,0.00,,---,0.00,VWS V14.01,2013-03-06 10:28:00,
2013-03-06 03:33:00,30.3,-8.1,30.24,SSW,209,0.0,5.0,18,0.00,,---,0.00,VWS V14.01,2013-03-06 10:33:00,
2013-03-06 03:38:00,30.4,-8.0,30.24,SSW,209,1.0,1.0,18,0.00,,---,0.00,VWS V14.01,2013-03-06 10:38:00,
2013-03-06 03:43:00,30.3,-8.1,30.24,SSW,206,5.0,5.0,18,0.00,,---,0.00,VWS V14.01,2013-03-06 10:43:00,
2013-03-06 03:48:00,30.3,-8.1,30.24,SSW,206,2.0,2.0,18,0.00,,---,0.00,VWS V14.01,2013-03-06 10:48:00,
2013-03-06 03:53:00,30.3,-8.1,30.24,SSW,206,1.0,2.0,18,0.00,,---,0.00,VWS V14.01,2013-03-06 10:53:00,
2013-03-06 03:58:00,30.3,-7.0,30.24,SSW,206,4.0,4.0,19,0.00,,---,0.00,VWS V14.01,2013-03-06 10:58:00,
2013-03-06 04:03:00,30.5,-7.9,30.24,SSW,206,0.0,1.0,18,0.00,,---,0.00,VWS V14.01,2013-03-06 11:03:00,
2013-03-06 04:08:00,30.6,-7.9,30.24,SSW,204,0.0,0.0,18,0.00,,---,0.00,VWS V14.01,2013-03-06 11:08:00,
2013-03-06 04:13:00,30.8,-7.7,30.23,SSW,204,0.0,0.0,18,0.00,,---,0.00,VWS V14.01,2013-03-06 11:13:00,
2013-03-06 04:18:00,31.2,-5.2,30.23,SSW,204,0.0,0.0,20,0.00,,---,0.00,VWS V14.01,2013-03-06 11:18:00,
2013-03-06 04:23:00,31.4,-6.1,30.23,SSW,204,1.0,4.0,19,0.00,,---,0.00,VWS V14.01,2013-03-06 11:23:00,
2013-03-06 04:28:00,31.7,-5.8,30.23,SSW,201,6.0,6.0,19,0.00,,---,0.00,VWS V14.01,2013-03-06 11:28:00,
2013-03-06 04:33:00,32.0,-5.6,30.23,SSW,201,2.0,4.0,19,0.00,,---,0.00,VWS V14.01,2013-03-06 11:33:00,
2013-03-06 04:38:00,32.1,-5.5,30.23,SSW,201,2.0,2.0,19,0.00,,---,0.00,VWS V14.01,2013-03-06 11:38:00,
2013-03-06 04:43:00,32.1,-5.5,30.22,South,190,4.0,7.0,19,0.00,,---,0.00,VWS V14.01,2013-03-06 11:43:00,
2013-03-06 04:48:00,32.1,-4.4,30.22,South,182,5.0,6.0,20,0.00,,---,0.00,VWS V14.01,2013-03-06 11:48:00,
2013-03-06 04:54:00,32.1,-5.5,30.22,SSE,160,5.0,5.0,19,0.00,,---,0.00,VWS V14.01,2013-03-06 11:54:00,
2013-03-06 04:59:00,32.0,-4.5,30.22,SSE,155,5.0,8.0,20,0.00,,---,0.00,VWS V14.01,2013-03-06 11:59:00,
2013-03-06 05:04:00,31.8,-2.7,30.22,SSW,205,5.0,5.0,22,0.00,,---,0.00,VWS V14.01,2013-03-06 12:04:00,
2013-03-06 05:09:00,30.8,-3.5,30.22,SW,215,3.0,5.0,22,0.00,,---,0.00,VWS V14.01,2013-03-06 12:09:00,
2013-03-06 05:14:00,30.0,-3.3,30.21,SW,216,2.0,4.0,23,0.00,,---,0.00,VWS V14.01,2013-03-06 12:14:00,
2013-03-06 05:19:00,29.7,-3.5,30.21,SW,222,5.0,7.0,23,0.00,,---,0.00,VWS V14.01,2013-03-06 12:19:00,
2013-03-06 05:24:00,29.7,-3.5,30.21,SW,221,6.0,7.0,23,0.00,,---,0.00,VWS V14.01,2013-03-06 12:24:00,
2013-03-06 05:29:00,30.0,-3.3,30.20,SW,229,5.0,5.0,23,0.00,,---,0.00,VWS V14.01,2013-03-06 12:29:00,
2013-03-06 05:34:00,30.4,-3.0,30.20,SW,229,1.0,4.0,23,0.00,,---,0.00,VWS V14.01,2013-03-06 12:34:00,
2013-03-06 05:39:00,30.6,-2.8,30.20,SW,236,5.0,6.0,23,0.00,,---,0.00,VWS V14.01,2013-03-06 12:39:00,
2013-03-06 05:44:00,30.6,-2.8,30.20,West,266,2.0,6.0,23,0.00,,---,0.00,VWS V14.01,2013-03-06 12:44:00,
2013-03-06 05:49:00,30.6,-3.7,30.20,West,266,3.0,4.0,22,0.00,,---,0.00,VWS V14.01,2013-03-06 12:49:00,
2013-03-06 05:54:00,30.7,-2.7,30.20,West,266,1.0,2.0,23,0.00,,---,0.00,VWS V14.01,2013-03-06 12:54:00,
2013-03-06 05:59:00,30.7,-3.6,30.20,West,266,2.0,2.0,22,0.00,,---,0.00,VWS V14.01,2013-03-06 12:59:00,
2013-03-06 06:04:00,30.7,-2.7,30.20,West,266,1.0,1.0,23,0.00,,---,0.00,VWS V14.01,2013-03-06 13:04:00,
2013-03-06 06:09:00,30.8,-2.6,30.20,West,267,3.0,5.0,23,0.00,,---,0.00,VWS V14.01,2013-03-06 13:09:00,
2013-03-06 06:14:00,30.8,-3.5,30.19,West,267,3.0,4.0,22,0.00,,---,0.00,VWS V14.01,2013-03-06 13:14:00,
2013-03-06 06:19:00,30.8,-3.5,30.19,West,267,6.0,6.0,22,0.00,,---,0.00,VWS V14.01,2013-03-06 13:19:00,
2013-03-06 06:24:00,31.0,-2.5,30.19,WNW,298,4.0,4.0,23,0.00,,---,0.00,VWS V14.01,2013-03-06 13:24:00,
2013-03-06 06:29:00,30.9,-2.5,30.19,WNW,298,0.0,2.0,23,0.00,,---,0.00,VWS V14.01,2013-03-06 13:29:00,
2013-03-06 06:34:00,30.9,-2.5,30.18,WNW,298,2.0,2.0,23,0.00,,---,0.00,VWS V14.01,2013-03-06 13:34:00,
2013-03-06 06:39:00,31.1,-0.6,30.18,WNW,284,1.0,2.0,25,0.00,,---,0.00,VWS V14.01,2013-03-06 13:39:00,
2013-03-06 06:44:00,31.5,-1.1,30.18,WNW,284,4.0,4.0,24,0.00,,---,0.00,VWS V14.01,2013-03-06 13:44:00,
2013-03-06 06:49:00,31.6,-1.0,30.18,West,279,2.0,2.0,24,0.00,,---,0.00,VWS V14.01,2013-03-06 13:49:00,
2013-03-06 06:54:00,31.8,-0.9,30.18,SW,227,5.0,5.0,24,0.00,,---,0.00,VWS V14.01,2013-03-06 13:54:00,
2013-03-06 06:59:00,32.5,-1.2,30.18,WSW,242,6.0,7.0,23,0.00,,---,0.00,VWS V14.01,2013-03-06 13:59:00,
2013-03-06 07:04:00,32.9,-0.8,30.18,WSW,245,5.0,6.0,23,0.00,,---,0.00,VWS V14.01,2013-03-06 14:04:00,
2013-03-06 07:09:00,33.2,-0.6,30.17,West,265,5.0,6.0,23,0.00,,---,0.00,VWS V14.01,2013-03-06 14:09:00,
2013-03-06 07:14:00,33.4,-0.4,30.17,WSW,255,4.0,8.0,23,0.00,,---,0.00,VWS V14.01,2013-03-06 14:14:00,
2013-03-06 07:20:00,33.5,-0.3,30.17,West,259,4.0,6.0,23,0.00,,---,0.00,VWS V14.01,2013-03-06 14:20:00,
2013-03-06 07:25:00,33.7,-0.2,30.17,WSW,250,2.0,2.0,23,0.00,,---,0.00,VWS V14.01,2013-03-06 14:25:00,
2013-03-06 07:30:00,34.0,0.1,30.17,WSW,244,5.0,6.0,23,0.00,,---,0.00,VWS V14.01,2013-03-06 14:30:00,
2013-03-06 07:35:00,34.3,-0.6,30.17,WSW,244,2.0,2.0,22,0.00,,---,0.00,VWS V14.01,2013-03-06 14:35:00,
2013-03-06 07:40:00,34.4,-0.5,30.17,WSW,244,4.0,4.0,22,0.00,,---,0.00,VWS V14.01,2013-03-06 14:40:00,
2013-03-06 07:45:00,34.6,-0.3,30.16,WSW,244,3.0,3.0,22,0.00,,---,0.00,VWS V14.01,2013-03-06 14:45:00,
2013-03-06 07:50:00,35.0,0.0,30.16,WSW,244,0.0,1.0,22,0.00,,---,0.00,VWS V14.01,2013-03-06 14:50:00,
2013-03-06 07:55:00,35.4,0.3,30.16,WSW,244,0.0,0.0,22,0.00,,---,0.00,VWS V14.01,2013-03-06 14:55:00,
2013-03-06 08:00:00,36.0,-0.1,30.16,WSW,244,0.0,1.0,21,0.00,,---,0.00,VWS V14.01,2013-03-06 15:00:00,
2013-03-06 08:05:00,36.8,1.5,30.16,WSW,244,1.0,3.0,22,0.00,,---,0.00,VWS V14.01,2013-03-06 15:05:00,
2013-03-06 08:10:00,37.6,1.2,30.15,WSW,251,1.0,1.0,21,0.00,,---,0.00,VWS V14.01,2013-03-06 15:10:00,
2013-03-06 08:15:00,38.2,1.7,30.15,West,275,2.0,6.0,21,0.00,,---,0.00,VWS V14.01,2013-03-06 15:15:00,
2013-03-06 08:20:00,38.9,1.3,30.15,WSW,254,1.0,1.0,20,0.00,,---,0.00,VWS V14.01,2013-03-06 15:20:00,
2013-03-06 08:25:00,40.1,2.3,30.15,SSW,202,4.0,6.0,20,0.00,,---,0.00,VWS V14.01,2013-03-06 15:25:00,
2013-03-06 08:30:00,40.6,2.7,30.14,South,190,0.0,5.0,20,0.00,,---,0.00,VWS V14.01,2013-03-06 15:30:00,
2013-03-06 08:35:00,40.9,1.8,30.14,SSE,150,4.0,6.0,19,0.00,,---,0.00,VWS V14.01,2013-03-06 15:35:00,
2013-03-06 08:41:00,40.7,2.8,30.14,SE,128,4.0,5.0,20,0.00,,---,0.00,VWS V14.01,2013-03-06 15:41:00,
2013-03-06 08:46:00,41.2,3.2,30.14,ESE,119,0.0,1.0,20,0.00,,---,0.00,VWS V14.01,2013-03-06 15:46:00,
2013-03-06 08:51:00,41.9,3.8,30.13,ESE,120,4.0,4.0,20,0.00,,---,0.00,VWS V14.01,2013-03-06 15:51:00,
2013-03-06 08:56:00,42.9,6.7,30.13,ESE,120,1.0,2.0,22,0.00,,---,0.00,VWS V14.01,2013-03-06 15:56:00,
2013-03-06 09:01:00,43.6,4.1,30.13,South,181,6.0,7.0,19,0.00,,---,0.00,VWS V14.01,2013-03-06 16:01:00,
2013-03-06 09:06:00,44.3,6.8,30.13,SSE,159,1.0,1.0,21,0.00,,---,0.00,VWS V14.01,2013-03-06 16:06:00,
2013-03-06 09:11:00,44.9,4.0,30.12,SE,126,5.0,7.0,18,0.00,,---,0.00,VWS V14.01,2013-03-06 16:11:00,
2013-03-06 09:16:00,44.5,2.4,30.12,ESE,119,2.0,2.0,17,0.00,,---,0.00,VWS V14.01,2013-03-06 16:16:00,
2013-03-06 09:21:00,44.0,3.2,30.12,SE,135,3.0,3.0,18,0.00,,---,0.00,VWS V14.01,2013-03-06 16:21:00,
2013-03-06 09:26:00,43.9,1.9,30.13,ESE,111,5.0,5.0,17,0.00,,---,0.00,VWS V14.01,2013-03-06 16:26:00,
2013-03-06 09:31:00,44.0,3.2,30.12,ESE,111,8.0,9.0,18,0.00,,---,0.00,VWS V14.01,2013-03-06 16:31:00,
2013-03-06 09:36:00,43.6,2.9,30.12,ESE,119,7.0,11.0,18,0.00,,---,0.00,VWS V14.01,2013-03-06 16:36:00,
2013-03-06 09:41:00,44.0,4.4,30.12,ESE,115,6.0,12.0,19,0.00,,---,0.00,VWS V14.01,2013-03-06 16:41:00,
2013-03-06 09:47:00,44.3,2.2,30.12,SE,129,6.0,9.0,17,0.00,,---,0.00,VWS V14.01,2013-03-06 16:47:00,
2013-03-06 09:52:00,44.6,3.7,30.12,ESE,120,6.0,8.0,18,0.00,,---,0.00,VWS V14.01,2013-03-06 16:52:00,
2013-03-06 09:57:00,44.6,1.2,30.12,ESE,113,7.0,7.0,16,0.00,,---,0.00,VWS V14.01,2013-03-06 16:57:00,
2013-03-06 10:02:00,44.5,-1.7,30.12,ESE,113,8.0,9.0,14,0.00,,---,0.00,VWS V14.01,2013-03-06 17:02:00,
2013-03-06 10:07:00,44.6,-0.2,30.12,ESE,119,7.0,7.0,15,0.00,,---,0.00,VWS V14.01,2013-03-06 17:07:00,
2013-03-06 10:12:00,45.1,1.6,30.12,ESE,117,5.0,7.0,16,0.00,,---,0.00,VWS V14.01,2013-03-06 17:12:00,
2013-03-06 10:17:00,45.4,0.5,30.11,ESE,115,2.0,6.0,15,0.00,,---,0.00,VWS V14.01,2013-03-06 17:17:00,
2013-03-06 10:22:00,45.7,0.7,30.11,ESE,105,8.0,9.0,15,0.00,,---,0.00,VWS V14.01,2013-03-06 17:22:00,
2013-03-06 10:27:00,45.5,-0.9,30.10,ESE,104,4.0,6.0,14,0.00,,---,0.00,VWS V14.01,2013-03-06 17:27:00,
2013-03-06 10:30:00,45.9,0.9,30.10,ESE,112,5.0,8.0,15,0.00,,---,0.00,VWS V14.01,2013-03-06 17:30:00,
2013-03-06 10:40:00,46.6,-1.6,30.09,SE,135,6.0,7.0,13,0.00,,---,0.00,VWS V14.01,2013-03-06 17:40:00,
2013-03-06 10:45:00,46.9,1.7,30.09,ESE,103,8.0,9.0,15,0.00,,---,0.00,VWS V14.01,2013-03-06 17:45:00,
2013-03-06 10:50:00,46.8,0.1,30.09,ESE,115,9.0,11.0,14,0.00,,---,0.00,VWS V14.01,2013-03-06 17:50:00,
2013-03-06 10:55:00,46.8,0.1,30.09,SSW,200,1.0,6.0,14,0.00,,---,0.00,VWS V14.01,2013-03-06 17:55:00,
2013-03-06 11:00:00,47.3,3.4,30.09,NE,45,6.0,11.0,16,0.00,,---,0.00,VWS V14.01,2013-03-06 18:00:00,
2013-03-06 11:05:00,47.6,4.9,30.09,SE,142,6.0,9.0,17,0.00,,---,0.00,VWS V14.01,2013-03-06 18:05:00,
2013-03-06 11:10:00,48.2,6.7,30.08,South,182,7.0,11.0,18,0.00,,---,0.00,VWS V14.01,2013-03-06 18:10:00,
2013-03-06 11:15:00,48.6,4.4,30.08,SSW,211,7.0,12.0,16,0.00,,---,0.00,VWS V14.01,2013-03-06 18:15:00,
2013-03-06 11:20:00,48.8,4.6,30.08,SW,231,6.0,15.0,16,0.00,,---,0.00,VWS V14.01,2013-03-06 18:20:00,
2013-03-06 11:26:00,48.4,6.9,30.08,South,180,5.0,15.0,18,0.00,,---,0.00,VWS V14.01,2013-03-06 18:26:00,
2013-03-06 11:31:00,48.4,4.3,30.07,SW,223,9.0,10.0,16,0.00,,---,0.00,VWS V14.01,2013-03-06 18:31:00,
2013-03-06 11:36:00,48.5,5.7,30.07,WSW,246,10.0,10.0,17,0.00,,---,0.00,VWS V14.01,2013-03-06 18:36:00,
2013-03-06 11:41:00,48.8,4.6,30.07,West,273,1.0,1.0,16,0.00,,---,0.00,VWS V14.01,2013-03-06 18:41:00,
2013-03-06 11:46:00,48.8,3.2,30.06,SSW,192,2.0,4.0,15,0.00,,---,0.00,VWS V14.01,2013-03-06 18:46:00,
2013-03-06 11:51:00,48.7,4.5,30.06,NNE,30,0.0,6.0,16,0.00,,---,0.00,VWS V14.01,2013-03-06 18:51:00,
2013-03-06 11:56:00,49.1,4.9,30.06,West,271,4.0,5.0,16,0.00,,---,0.00,VWS V14.01,2013-03-06 18:56:00,
2013-03-06 12:01:00,49.4,5.1,30.05,West,276,2.0,2.0,16,0.00,,---,0.00,VWS V14.01,2013-03-06 19:01:00,
2013-03-06 12:06:00,49.9,8.1,30.05,SE,131,11.0,11.0,18,0.00,,---,0.00,VWS V14.01,2013-03-06 19:06:00,
2013-03-06 12:11:00,49.6,9.1,30.05,ESE,123,7.0,14.0,19,0.00,,---,0.00,VWS V14.01,2013-03-06 19:11:00,
2013-03-06 12:16:00,49.6,10.2,30.05,ESE,111,13.0,13.0,20,0.00,,---,0.00,VWS V14.01,2013-03-06 19:16:00,
2013-03-06 12:21:00,49.2,7.5,30.04,ESE,116,6.0,10.0,18,0.00,,---,0.00,VWS V14.01,2013-03-06 19:21:00,
2013-03-06 12:26:00,49.3,7.6,30.04,ESE,112,12.0,12.0,18,0.00,,---,0.00,VWS V14.01,2013-03-06 19:26:00,
2013-03-06 12:31:00,49.2,6.3,30.03,SSE,152,2.0,3.0,17,0.00,,---,0.00,VWS V14.01,2013-03-06 19:31:00,
2013-03-06 12:36:00,49.4,8.9,30.03,East,98,9.0,10.0,19,0.00,,---,0.00,VWS V14.01,2013-03-06 19:36:00,
2013-03-06 12:41:00,49.1,8.6,30.03,ESE,123,16.0,16.0,19,0.00,,---,0.00,VWS V14.01,2013-03-06 19:41:00,
2013-03-06 12:46:00,49.1,8.6,30.03,SE,143,9.0,16.0,19,0.00,,---,0.00,VWS V14.01,2013-03-06 19:46:00,
2013-03-06 12:51:00,49.3,8.8,30.02,ESE,114,7.0,9.0,19,0.00,,---,0.00,VWS V14.01,2013-03-06 19:51:00,
2013-03-06 12:56:00,49.6,5.3,30.02,SE,125,10.0,10.0,16,0.00,,---,0.00,VWS V14.01,2013-03-06 19:56:00,
2013-03-06 13:01:00,49.7,9.1,30.01,ESE,103,10.0,12.0,19,0.00,,---,0.00,VWS V14.01,2013-03-06 20:01:00,
2013-03-06 13:06:00,49.4,6.4,30.01,ESE,108,8.0,8.0,17,0.00,,---,0.00,VWS V14.01,2013-03-06 20:06:00,
2013-03-06 13:11:00,48.9,8.5,30.01,ESE,103,5.0,7.0,19,0.00,,---,0.00,VWS V14.01,2013-03-06 20:11:00,
2013-03-06 13:16:00,49.2,10.9,30.00,East,82,10.0,10.0,21,0.00,,---,0.00,VWS V14.01,2013-03-06 20:16:00,
2013-03-06 13:22:00,49.2,7.5,30.00,ESE,111,5.0,8.0,18,0.00,,---,0.00,VWS V14.01,2013-03-06 20:22:00,
2013-03-06 13:27:00,49.2,8.7,30.00,ESE,103,9.0,11.0,19,0.00,,---,0.00,VWS V14.01,2013-03-06 20:27:00,
2013-03-06 13:32:00,49.2,10.9,29.99,SSE,168,2.0,8.0,21,0.00,,---,0.00,VWS V14.01,2013-03-06 20:32:00,
2013-03-06 13:37:00,49.7,9.1,29.99,ESE,118,7.0,7.0,19,0.00,,---,0.00,VWS V14.01,2013-03-06 20:37:00,
2013-03-06 13:42:00,49.5,9.0,30.00,ESE,104,9.0,9.0,19,0.00,,---,0.00,VWS V14.01,2013-03-06 20:42:00,
2013-03-06 13:47:00,49.6,11.3,29.99,SW,217,6.0,7.0,21,0.00,,---,0.00,VWS V14.01,2013-03-06 20:47:00,
2013-03-06 13:52:00,50.0,9.4,30.00,SW,225,12.0,15.0,19,0.00,,---,0.00,VWS V14.01,2013-03-06 20:52:00,
2013-03-06 13:57:00,50.4,8.5,29.99,South,178,7.0,8.0,18,0.00,,---,0.00,VWS V14.01,2013-03-06 20:57:00,
2013-03-06 14:02:00,50.7,10.0,29.99,South,186,6.0,6.0,19,0.00,,---,0.00,VWS V14.01,2013-03-06 21:02:00,
2013-03-06 14:07:00,50.9,10.1,29.99,South,179,6.0,12.0,19,0.00,,---,0.00,VWS V14.01,2013-03-06 21:07:00,
2013-03-06 14:12:00,51.0,9.0,29.98,South,176,16.0,23.0,18,0.00,,---,0.00,VWS V14.01,2013-03-06 21:12:00,
2013-03-06 14:17:00,50.8,6.2,29.98,South,181,1.0,7.0,16,0.00,,---,0.00,VWS V14.01,2013-03-06 21:17:00,
2013-03-06 14:22:00,51.1,10.3,29.98,SSE,148,1.0,15.0,19,0.00,,---,0.00,VWS V14.01,2013-03-06 21:22:00,
2013-03-06 14:27:00,51.2,6.6,29.97,South,176,6.0,15.0,16,0.00,,---,0.00,VWS V14.01,2013-03-06 21:27:00,
2013-03-06 14:32:00,50.9,7.7,29.97,SSW,209,2.0,6.0,17,0.00,,---,0.00,VWS V14.01,2013-03-06 21:32:00,
2013-03-06 14:38:00,51.0,5.0,29.97,SSW,199,6.0,18.0,15,0.00,,---,0.00,VWS V14.01,2013-03-06 21:38:00,
2013-03-06 14:43:00,51.1,5.1,29.97,South,188,10.0,12.0,15,0.00,,---,0.00,VWS V14.01,2013-03-06 21:43:00,
2013-03-06 14:48:00,51.0,12.5,29.97,ESE,109,9.0,12.0,21,0.00,,---,0.00,VWS V14.01,2013-03-06 21:48:00,
2013-03-06 14:53:00,49.1,9.8,29.97,SSE,149,1.0,9.0,20,0.00,,---,0.00,VWS V14.01,2013-03-06 21:53:00,
2013-03-06 14:58:00,47.8,12.8,29.97,SSE,154,7.0,10.0,24,0.00,,---,0.00,VWS V14.01,2013-03-06 21:58:00,
2013-03-06 15:03:00,46.4,12.5,29.96,SE,133,8.0,10.0,25,0.00,,---,0.00,VWS V14.01,2013-03-06 22:03:00,
2013-03-06 15:08:00,45.7,14.5,29.96,ESE,111,10.0,16.0,28,0.00,,---,0.00,VWS V14.01,2013-03-06 22:08:00,
2013-03-06 15:13:00,45.5,14.3,29.96,SSE,161,6.0,10.0,28,0.00,,---,0.00,VWS V14.01,2013-03-06 22:13:00,
2013-03-06 15:18:00,46.1,14.8,29.97,SE,135,10.0,11.0,28,0.00,,---,0.00,VWS V14.01,2013-03-06 22:18:00,
2013-03-06 15:23:00,46.5,14.3,29.96,East,85,4.0,7.0,27,0.00,,---,0.00,VWS V14.01,2013-03-06 22:23:00,
2013-03-06 15:28:00,46.6,12.7,29.96,SE,144,10.0,10.0,25,0.00,,---,0.00,VWS V14.01,2013-03-06 22:28:00,
2013-03-06 15:33:00,46.4,12.5,29.96,SSE,154,8.0,9.0,25,0.00,,---,0.00,VWS V14.01,2013-03-06 22:33:00,
2013-03-06 15:38:00,46.7,12.8,29.96,SE,132,6.0,6.0,25,0.00,,---,0.00,VWS V14.01,2013-03-06 22:38:00,
2013-03-06 15:43:00,46.7,11.8,29.95,SE,145,7.0,9.0,24,0.00,,---,0.00,VWS V14.01,2013-03-06 22:43:00,
2013-03-06 15:48:00,46.6,10.8,29.95,ESE,119,6.0,8.0,23,0.00,,---,0.00,VWS V14.01,2013-03-06 22:48:00,
2013-03-06 15:53:00,46.5,12.6,29.95,South,173,2.0,5.0,25,0.00,,---,0.00,VWS V14.01,2013-03-06 22:53:00,
2013-03-06 15:58:00,46.5,10.7,29.95,SE,133,1.0,5.0,23,0.00,,---,0.00,VWS V14.01,2013-03-06 22:58:00,
2013-03-06 16:03:00,46.0,13.9,29.95,SE,136,7.0,11.0,27,0.00,,---,0.00,VWS V14.01,2013-03-06 23:03:00,
2013-03-06 16:08:00,45.1,12.3,29.95,ESE,117,1.0,2.0,26,0.00,,---,0.00,VWS V14.01,2013-03-06 23:08:00,
2013-03-06 16:13:00,45.2,13.2,29.95,SE,125,4.0,5.0,27,0.00,,---,0.00,VWS V14.01,2013-03-06 23:13:00,
2013-03-06 16:18:00,44.9,14.6,29.95,SE,127,1.0,2.0,29,0.00,,---,0.00,VWS V14.01,2013-03-06 23:18:00,
2013-03-06 16:23:00,44.9,14.6,29.95,South,185,5.0,7.0,29,0.00,,---,0.00,VWS V14.01,2013-03-06 23:23:00,
2013-03-06 16:28:00,45.0,13.1,29.94,ESE,119,7.0,7.0,27,0.00,,---,0.00,VWS V14.01,2013-03-06 23:28:00,
2013-03-06 16:33:00,44.5,14.2,29.94,SE,135,2.0,6.0,29,0.00,,---,0.00,VWS V14.01,2013-03-06 23:33:00,
2013-03-06 16:38:00,44.2,14.8,29.95,SE,146,6.0,8.0,30,0.00,,---,0.00,VWS V14.01,2013-03-06 23:38:00,
2013-03-06 16:43:00,43.8,13.6,29.94,SE,126,1.0,3.0,29,0.00,,---,0.00,VWS V14.01,2013-03-06 23:43:00,
2013-03-06 16:48:00,43.5,14.9,29.94,SE,126,1.0,1.0,31,0.00,,---,0.00,VWS V14.01,2013-03-06 23:48:00,
2013-03-06 16:53:00,43.5,14.1,29.95,SSE,160,2.0,6.0,30,0.00,,---,0.00,VWS V14.01,2013-03-06 23:53:00,
2013-03-06 16:58:00,43.4,13.3,29.95,SE,139,2.0,3.0,29,0.00,,---,0.00,VWS V14.01,2013-03-06 23:58:00,
2013-03-06 17:03:00,43.3,15.4,29.95,South,172,6.0,10.0,32,0.00,,---,0.00,VWS V14.01,2013-03-07 00:03:00,
2013-03-06 17:08:00,43.8,14.4,29.95,South,182,2.0,3.0,30,0.00,,---,0.00,VWS V14.01,2013-03-07 00:08:00,
2013-03-06 17:13:00,43.8,14.4,29.95,SSE,150,5.0,7.0,30,0.00,,---,0.00,VWS V14.01,2013-03-07 00:13:00,
2013-03-06 17:18:00,43.2,13.9,29.95,SSE,165,7.0,12.0,30,0.00,,---,0.00,VWS V14.01,2013-03-07 00:18:00,
2013-03-06 17:23:00,42.6,14.1,29.95,ESE,121,4.0,4.0,31,0.00,,---,0.00,VWS V14.01,2013-03-07 00:23:00,
2013-03-06 17:28:00,42.1,12.1,29.95,South,188,2.0,5.0,29,0.00,,---,0.00,VWS V14.01,2013-03-07 00:28:00,
2013-03-06 17:34:00,42.2,10.6,29.95,SW,225,6.0,6.0,27,0.00,,---,0.00,VWS V14.01,2013-03-07 00:34:00,
2013-03-06 17:39:00,42.3,10.7,29.95,SW,215,0.0,2.0,27,0.00,,---,0.00,VWS V14.01,2013-03-07 00:39:00,
2013-03-06 17:44:00,42.2,10.6,29.95,SW,227,1.0,4.0,27,0.00,,---,0.00,VWS V14.01,2013-03-07 00:44:00,
2013-03-06 17:49:00,41.9,10.4,29.95,WSW,240,1.0,4.0,27,0.00,,---,0.00,VWS V14.01,2013-03-07 00:49:00,
2013-03-06 17:54:00,41.4,9.9,29.95,WSW,244,3.0,4.0,27,0.00,,---,0.00,VWS V14.01,2013-03-07 00:54:00,
2013-03-06 17:59:00,40.9,10.3,29.95,WSW,256,5.0,7.0,28,0.00,,---,0.00,VWS V14.01,2013-03-07 00:59:00,
2013-03-06 18:04:00,40.3,11.4,29.95,SW,232,3.0,3.0,30,0.00,,---,0.00,VWS V14.01,2013-03-07 01:04:00,
2013-03-06 18:09:00,39.8,9.4,29.96,WSW,242,3.0,6.0,28,0.00,,---,0.00,VWS V14.01,2013-03-07 01:09:00,
2013-03-06 18:14:00,39.4,9.8,29.96,SW,223,0.0,4.0,29,0.00,,---,0.00,VWS V14.01,2013-03-07 01:14:00,
2013-03-06 18:19:00,39.0,8.7,29.96,SW,235,5.0,6.0,28,0.00,,---,0.00,VWS V14.01,2013-03-07 01:19:00,
2013-03-06 18:24:00,38.7,8.4,29.96,West,271,0.0,2.0,28,0.00,,---,0.00,VWS V14.01,2013-03-07 01:24:00,
2013-03-06 18:29:00,38.4,8.1,29.96,West,270,2.0,4.0,28,0.00,,---,0.00,VWS V14.01,2013-03-07 01:29:00,
2013-03-06 18:34:00,38.3,7.3,29.96,West,280,6.0,6.0,27,0.00,,---,0.00,VWS V14.01,2013-03-07 01:34:00,
2013-03-06 18:39:00,38.5,7.4,29.96,West,273,6.0,6.0,27,0.00,,---,0.00,VWS V14.01,2013-03-07 01:39:00,
2013-03-06 18:44:00,38.6,6.7,29.96,West,260,4.0,5.0,26,0.00,,---,0.00,VWS V14.01,2013-03-07 01:44:00,
2013-03-06 18:49:00,38.6,6.7,29.96,West,260,2.0,4.0,26,0.00,,---,0.00,VWS V14.01,2013-03-07 01:49:00,
2013-03-06 18:54:00,38.4,6.5,29.97,West,261,4.0,5.0,26,0.00,,---,0.00,VWS V14.01,2013-03-07 01:54:00,
2013-03-06 18:59:00,38.4,6.5,29.97,SW,221,5.0,7.0,26,0.00,,---,0.00,VWS V14.01,2013-03-07 01:59:00,
2013-03-06 19:04:00,38.6,6.7,29.97,West,279,2.0,6.0,26,0.00,,---,0.00,VWS V14.01,2013-03-07 02:04:00,
2013-03-06 19:09:00,38.6,6.7,29.96,West,263,5.0,6.0,26,0.00,,---,0.00,VWS V14.01,2013-03-07 02:09:00,
2013-03-06 19:14:00,38.6,5.8,29.96,WNW,294,1.0,7.0,25,0.00,,---,0.00,VWS V14.01,2013-03-07 02:14:00,
2013-03-06 19:19:00,38.6,6.7,29.96,WSW,255,6.0,6.0,26,0.00,,---,0.00,VWS V14.01,2013-03-07 02:19:00,
2013-03-06 19:24:00,38.3,7.3,29.96,WSW,251,6.0,9.0,27,0.00,,---,0.00,VWS V14.01,2013-03-07 02:24:00,
2013-03-06 19:29:00,38.1,7.1,29.96,West,275,3.0,8.0,27,0.00,,---,0.00,VWS V14.01,2013-03-07 02:29:00,
2013-03-06 19:34:00,37.8,6.8,29.96,WNW,288,7.0,10.0,27,0.00,,---,0.00,VWS V14.01,2013-03-07 02:34:00,
2013-03-06 19:39:00,37.8,7.6,29.96,West,274,3.0,3.0,28,0.00,,---,0.00,VWS V14.01,2013-03-07 02:39:00,
2013-03-06 19:44:00,37.7,7.6,29.96,WNW,294,6.0,8.0,28,0.00,,---,0.00,VWS V14.01,2013-03-07 02:44:00,
2013-03-06 19:49:00,37.5,6.6,29.96,WNW,282,6.0,11.0,27,0.00,,---,0.00,VWS V14.01,2013-03-07 02:49:00,
2013-03-06 19:54:00,37.3,6.4,29.96,WNW,300,9.0,9.0,27,0.00,,---,0.00,VWS V14.01,2013-03-07 02:54:00,
2013-03-06 19:59:00,37.0,6.9,29.95,WSW,258,3.0,5.0,28,0.00,,---,0.00,VWS V14.01,2013-03-07 02:59:00,
2013-03-06 20:04:00,36.7,6.7,29.95,WSW,252,3.0,10.0,28,0.00,,---,0.00,VWS V14.01,2013-03-07 03:04:00,
2013-03-06 20:09:00,36.7,7.4,29.95,WNW,292,4.0,4.0,29,0.00,,---,0.00,VWS V14.01,2013-03-07 03:09:00,
2013-03-06 20:14:00,36.5,6.5,29.96,West,261,4.0,9.0,28,0.00,,---,0.00,VWS V14.01,2013-03-07 03:14:00,
2013-03-06 20:19:00,36.4,7.2,29.96,WNW,288,4.0,6.0,29,0.00,,---,0.00,VWS V14.01,2013-03-07 03:19:00,
2013-03-06 20:24:00,36.1,7.7,29.96,WNW,298,2.0,6.0,30,0.00,,---,0.00,VWS V14.01,2013-03-07 03:24:00,
2013-03-06 20:29:00,35.6,7.2,29.96,WNW,303,5.0,7.0,30,0.00,,---,0.00,VWS V14.01,2013-03-07 03:29:00,
2013-03-06 20:34:00,35.4,6.3,29.96,WNW,285,5.0,6.0,29,0.00,,---,0.00,VWS V14.01,2013-03-07 03:34:00,
2013-03-06 20:39:00,35.2,6.1,29.96,WNW,300,1.0,5.0,29,0.00,,---,0.00,VWS V14.01,2013-03-07 03:39:00,
2013-03-06 20:44:00,35.1,7.5,29.96,NW,308,4.0,6.0,31,0.00,,---,0.00,VWS V14.01,2013-03-07 03:44:00,
2013-03-06 20:49:00,34.6,7.1,29.96,WNW,282,3.0,5.0,31,0.00,,---,0.00,VWS V14.01,2013-03-07 03:49:00,
2013-03-06 20:54:00,34.4,6.9,29.96,NW,323,5.0,5.0,31,0.00,,---,0.00,VWS V14.01,2013-03-07 03:54:00,
2013-03-06 20:59:00,34.6,6.4,29.96,NW,305,4.0,6.0,30,0.00,,---,0.00,VWS V14.01,2013-03-07 03:59:00,
2013-03-06 21:04:00,34.5,7.0,29.97,NW,310,0.0,0.0,31,0.00,,---,0.00,VWS V14.01,2013-03-07 04:04:00,
2013-03-06 21:09:00,34.3,6.8,29.96,WNW,292,2.0,4.0,31,0.00,,---,0.00,VWS V14.01,2013-03-07 04:09:00,
2013-03-06 21:14:00,33.9,7.2,29.96,WNW,299,7.0,7.0,32,0.00,,---,0.00,VWS V14.01,2013-03-07 04:14:00,
2013-03-06 21:20:00,33.7,7.0,29.96,WSW,258,1.0,5.0,32,0.00,,---,0.00,VWS V14.01,2013-03-07 04:20:00,
2013-03-06 21:25:00,33.6,6.2,29.96,WSW,258,0.0,0.0,31,0.00,,---,0.00,VWS V14.01,2013-03-07 04:25:00,
2013-03-06 21:30:00,33.5,5.4,29.96,WSW,258,0.0,0.0,30,0.00,,---,0.00,VWS V14.01,2013-03-07 04:30:00,
2013-03-06 21:35:00,33.5,5.4,29.96,SSW,213,0.0,2.0,30,0.00,,---,0.00,VWS V14.01,2013-03-07 04:35:00,
2013-03-06 21:40:00,33.7,5.6,29.95,WSW,244,1.0,6.0,30,0.00,,---,0.00,VWS V14.01,2013-03-07 04:40:00,
2013-03-06 21:45:00,33.9,5.8,29.95,WSW,244,5.0,7.0,30,0.00,,---,0.00,VWS V14.01,2013-03-07 04:45:00,
2013-03-06 21:50:00,34.1,6.6,29.95,SSW,207,6.0,7.0,31,0.00,,---,0.00,VWS V14.01,2013-03-07 04:50:00,
2013-03-06 21:55:00,34.1,5.9,29.95,SSW,210,6.0,8.0,30,0.00,,---,0.00,VWS V14.01,2013-03-07 04:55:00,
2013-03-06 22:00:00,34.5,5.5,29.95,WSW,248,15.0,15.0,29,0.00,,---,0.00,VWS V14.01,2013-03-07 05:00:00,
2013-03-06 22:02:00,34.6,6.4,29.95,SW,215,1.0,8.0,30,0.00,,---,0.00,VWS V14.01,2013-03-07 05:02:00,
2013-03-06 22:07:00,34.8,5.8,29.95,SW,221,8.0,13.0,29,0.00,,---,0.00,VWS V14.01,2013-03-07 05:07:00,
2013-03-06 22:12:00,35.3,6.2,29.95,SSW,202,6.0,14.0,29,0.00,,---,0.00,VWS V14.01,2013-03-07 05:12:00,
2013-03-06 22:17:00,35.7,5.8,29.94,WSW,238,4.0,9.0,28,0.00,,---,0.00,VWS V14.01,2013-03-07 05:17:00,
2013-03-06 22:22:00,35.8,5.9,29.94,SW,236,4.0,4.0,28,0.00,,---,0.00,VWS V14.01,2013-03-07 05:22:00,
2013-03-06 22:27:00,35.9,6.8,29.94,WSW,242,3.0,6.0,29,0.00,,---,0.00,VWS V14.01,2013-03-07 05:27:00,
2013-03-06 22:32:00,36.0,6.1,29.94,WSW,242,7.0,8.0,28,0.00,,---,0.00,VWS V14.01,2013-03-07 05:32:00,
2013-03-06 22:37:00,36.2,5.4,29.94,SSW,210,11.0,16.0,27,0.00,,---,0.00,VWS V14.01,2013-03-07 05:37:00,
2013-03-06 22:42:00,36.6,5.8,29.95,SSW,207,11.0,11.0,27,0.00,,---,0.00,VWS V14.01,2013-03-07 05:42:00,
2013-03-06 22:47:00,36.6,5.8,29.95,SW,223,8.0,13.0,27,0.00,,---,0.00,VWS V14.01,2013-03-07 05:47:00,
2013-03-06 22:52:00,36.8,5.1,29.94,SSW,203,13.0,14.0,26,0.00,,---,0.00,VWS V14.01,2013-03-07 05:52:00,
2013-03-06 22:57:00,37.1,5.4,29.94,SW,229,8.0,13.0,26,0.00,,---,0.00,VWS V14.01,2013-03-07 05:57:00,
2013-03-06 23:02:00,37.1,5.4,29.94,SW,218,8.0,11.0,26,0.00,,---,0.00,VWS V14.01,2013-03-07 06:02:00,
2013-03-06 23:07:00,37.0,5.3,29.94,WSW,253,12.0,18.0,26,0.00,,---,0.00,VWS V14.01,2013-03-07 06:07:00,
2013-03-06 23:12:00,36.9,6.1,29.94,SSW,208,6.0,12.0,27,0.00,,---,0.00,VWS V14.01,2013-03-07 06:12:00,
2013-03-06 23:17:00,36.8,6.0,29.94,SSW,209,12.0,18.0,27,0.00,,---,0.00,VWS V14.01,2013-03-07 06:17:00,
2013-03-06 23:23:00,36.8,5.1,29.93,West,259,2.0,22.0,26,0.00,,---,0.00,VWS V14.01,2013-03-07 06:23:00,
2013-03-06 23:28:00,36.8,6.0,29.93,SW,216,9.0,20.0,27,0.00,,---,0.00,VWS V14.01,2013-03-07 06:28:00,
2013-03-06 23:33:00,36.7,6.7,29.93,South,185,6.0,18.0,28,0.00,,---,0.00,VWS V14.01,2013-03-07 06:33:00,
2013-03-06 23:38:00,36.8,6.0,29.94,SW,222,20.0,20.0,27,0.00,,---,0.00,VWS V14.01,2013-03-07 06:38:00,
2013-03-06 23:43:00,37.0,5.3,29.94,SSW,200,7.0,7.0,26,0.00,,---,0.00,VWS V14.01,2013-03-07 06:43:00,
2013-03-06 23:48:00,37.0,6.1,29.94,South,183,6.0,10.0,27,0.00,,---,0.00,VWS V14.01,2013-03-07 06:48:00,
2013-03-06 23:53:00,36.8,6.8,29.94,South,190,14.0,16.0,28,0.00,,---,0.00,VWS V14.01,2013-03-07 06:53:00,
2013-03-06 23:58:00,36.5,6.5,29.94,South,177,1.0,7.0,28,0.00,,---,0.00,VWS V14.01,2013-03-07 06:58:00,